createdAt,value
2019-03-30T00:00:35.235Z,34.50
2019-03-30T00:05:38.933Z,34.01
2019-03-30T00:10:44.204Z,34.53
2019-03-30T00:15:47.811Z,34.90
2019-03-30T00:20:51.535Z,35.11
2019-03-30T00:25:55.193Z,34.95
2019-03-30T00:30:58.923Z,35.35
2019-03-30T00:36:02.554Z,35.98
2019-03-30T00:41:06.333Z,36.32
2019-03-30T00:46:09.981Z,36.99
2019-03-30T00:51:13.913Z,37.49
2019-03-30T00:56:17.530Z,38.19
2019-03-30T01:01:21.454Z,38.42
2019-03-30T01:06:25.092Z,39.84
2019-03-30T01:11:28.774Z,39.23
2019-03-30T01:16:32.382Z,39.03
2019-03-30T01:21:36.081Z,39.23
2019-03-30T01:26:39.693Z,37.38
2019-03-30T01:31:43.672Z,35.87
2019-03-30T01:36:47.411Z,34.59
2019-03-30T01:41:51.146Z,34.06
2019-03-30T01:46:54.854Z,33.62
2019-03-30T01:51:58.592Z,34.01
2019-03-30T01:57:02.413Z,34.35
2019-03-30T02:02:06.131Z,34.52
2019-03-30T02:07:10.691Z,34.72
2019-03-30T02:12:14.423Z,35.37
2019-03-30T02:17:20.164Z,35.79
2019-03-30T02:22:23.587Z,36.36
2019-03-30T02:27:27.332Z,36.96
2019-03-30T02:32:31.121Z,37.74
2019-03-30T02:37:34.777Z,38.01
2019-03-30T02:42:38.416Z,38.11
2019-03-30T02:47:42.178Z,37.67
2019-03-30T02:52:45.854Z,39.84
2019-03-30T02:57:49.530Z,38.16
2019-03-30T03:02:53.247Z,40.80
2019-03-30T03:07:56.931Z,38.53
2019-03-30T03:13:00.593Z,40.54
2019-03-30T03:18:05.210Z,40.35
2019-03-30T03:23:08.874Z,39.90
2019-03-30T03:28:12.521Z,37.22
2019-03-30T03:33:16.189Z,35.69
2019-03-30T03:38:19.823Z,34.29
2019-03-30T03:43:23.494Z,33.66
2019-03-30T03:48:27.109Z,33.24
2019-03-30T03:53:31.163Z,33.55
2019-03-30T03:58:35.253Z,33.99
2019-03-30T04:03:39.021Z,34.09
2019-03-30T04:08:44.315Z,34.29
2019-03-30T04:13:48.002Z,35.06
2019-03-30T04:18:51.654Z,35.19
2019-03-30T04:23:55.299Z,35.69
2019-03-30T04:28:59.057Z,36.02
2019-03-30T04:34:02.813Z,36.60
2019-03-30T04:39:06.629Z,37.04
2019-03-30T04:44:10.362Z,38.18
2019-03-30T04:49:14.178Z,37.42
2019-03-30T04:54:17.905Z,40.66
2019-03-30T04:59:21.841Z,41.19
2019-03-30T05:04:25.652Z,42.24
2019-03-30T05:09:29.257Z,40.26
2019-03-30T05:14:33.189Z,39.62
2019-03-30T05:19:36.911Z,38.15
2019-03-30T05:24:40.645Z,40.65
2019-03-30T05:29:44.347Z,38.29
2019-03-30T05:34:48.063Z,40.60
2019-03-30T05:39:51.782Z,38.86
2019-03-30T05:44:57.766Z,37.44
2019-03-30T05:50:01.182Z,35.69
2019-03-30T05:55:05.613Z,34.93
2019-03-30T06:00:09.976Z,34.52
2019-03-30T06:05:13.987Z,34.12
2019-03-30T06:10:17.905Z,33.75
2019-03-30T06:15:21.627Z,34.19
2019-03-30T06:20:25.368Z,34.17
2019-03-30T06:25:31.535Z,34.24
2019-03-30T06:30:35.676Z,33.74
2019-03-30T06:35:39.615Z,33.29
2019-03-30T06:40:43.593Z,33.23
2019-03-30T06:45:47.310Z,33.38
2019-03-30T06:50:51.061Z,33.19
2019-03-30T06:55:54.683Z,32.86
2019-03-30T07:00:58.402Z,32.63
2019-03-30T07:06:02.127Z,32.68
2019-03-30T07:11:20.182Z,32.50
2019-03-30T07:16:11.741Z,32.21
2019-03-30T07:21:15.665Z,31.80
2019-03-30T07:26:19.546Z,31.97
2019-03-30T07:31:23.302Z,31.74
2019-03-30T07:36:27.013Z,31.09
2019-03-30T07:41:30.837Z,31.65
2019-03-30T07:46:34.575Z,31.48
2019-03-30T07:51:38.284Z,31.99
2019-03-30T07:56:42.009Z,31.04
2019-03-30T08:01:45.749Z,31.24
2019-03-30T08:06:49.455Z,31.45
2019-03-30T08:11:53.287Z,31.37
2019-03-30T08:16:56.998Z,31.13
2019-03-30T08:22:00.731Z,31.18
2019-03-30T08:27:05.680Z,31.16
2019-03-30T08:32:09.387Z,31.59
2019-03-30T08:37:13.971Z,31.84
2019-03-30T08:42:17.752Z,31.18
2019-03-30T08:47:21.487Z,31.26
2019-03-30T08:52:25.404Z,31.46
2019-03-30T08:57:29.134Z,31.20
2019-03-30T09:02:32.845Z,31.22
2019-03-30T09:07:36.570Z,31.13
2019-03-30T09:12:40.408Z,31.08
2019-03-30T09:17:44.102Z,31.29
2019-03-30T09:22:47.851Z,31.23
2019-03-30T09:27:51.669Z,31.22
2019-03-30T09:32:55.378Z,31.14
2019-03-30T09:37:59.245Z,31.38
2019-03-30T09:43:02.922Z,31.52
2019-03-30T09:48:19.716Z,31.51
2019-03-30T09:53:23.389Z,31.76
2019-03-30T09:58:27.094Z,31.89
2019-03-30T10:03:31.019Z,32.00
2019-03-30T10:08:34.741Z,32.20
2019-03-30T10:13:38.476Z,32.09
2019-03-30T10:18:42.198Z,32.00
2019-03-30T10:23:45.900Z,31.14
2019-03-30T10:28:49.631Z,31.32
2019-03-30T10:33:53.476Z,32.34
2019-03-30T10:38:57.184Z,32.61
2019-03-30T10:44:00.905Z,32.88
2019-03-30T10:49:05.140Z,33.18
2019-03-30T10:54:08.877Z,33.48
2019-03-30T10:59:12.600Z,33.75
2019-03-30T11:04:16.309Z,34.00
2019-03-30T11:09:20.135Z,34.23
2019-03-30T11:14:23.738Z,34.33
2019-03-30T11:19:27.476Z,34.71
2019-03-30T11:24:31.169Z,35.19
2019-03-30T11:29:34.904Z,35.65
2019-03-30T11:34:38.657Z,35.89
2019-03-30T11:39:42.339Z,35.24
2019-03-30T11:44:46.063Z,35.38
2019-03-30T11:49:49.796Z,35.20
2019-03-30T11:54:53.515Z,34.77
2019-03-30T11:59:57.236Z,34.59
2019-03-30T12:05:00.958Z,34.55
2019-03-30T12:10:06.627Z,34.73
2019-03-30T12:15:10.343Z,34.91
2019-03-30T12:20:13.996Z,34.90
2019-03-30T12:25:17.670Z,34.77
2019-03-30T12:30:21.405Z,34.88
2019-03-30T12:35:25.358Z,34.87
2019-03-30T12:40:28.963Z,35.27
2019-03-30T12:45:32.627Z,35.55
2019-03-30T12:50:36.280Z,35.67
2019-03-30T12:55:49.178Z,35.70
2019-03-30T13:00:45.475Z,35.85
2019-03-30T13:05:49.101Z,35.80
2019-03-30T13:10:52.839Z,35.83
2019-03-30T13:15:56.530Z,35.83
2019-03-30T13:21:00.368Z,35.86
2019-03-30T13:26:04.912Z,35.73
2019-03-30T13:31:08.629Z,34.50
2019-03-30T13:36:12.771Z,35.33
2019-03-30T13:41:16.407Z,35.46
2019-03-30T13:46:20.040Z,35.97
2019-03-30T13:51:23.733Z,34.58
2019-03-30T13:56:27.377Z,35.64
2019-03-30T14:01:31.009Z,34.86
2019-03-30T14:06:34.679Z,36.03
2019-03-30T14:11:38.318Z,37.04
2019-03-30T14:16:41.998Z,36.32
2019-03-30T14:21:45.602Z,35.14
2019-03-30T14:26:49.249Z,35.53
2019-03-30T14:31:52.858Z,35.01
2019-03-30T14:36:56.404Z,34.36
2019-03-30T14:42:00.005Z,36.50
2019-03-30T14:47:03.564Z,37.33
2019-03-30T14:52:07.157Z,37.01
2019-03-30T14:57:10.702Z,36.67
2019-03-30T15:02:14.247Z,36.31
2019-03-30T15:07:17.824Z,35.76
2019-03-30T15:12:21.376Z,35.53
2019-03-30T15:17:24.952Z,35.37
2019-03-30T15:22:28.505Z,35.23
2019-03-30T15:27:32.087Z,35.20
2019-03-30T15:32:35.614Z,35.28
2019-03-30T15:37:39.188Z,35.26
2019-03-30T15:42:42.765Z,35.18
2019-03-30T15:47:46.313Z,35.25
2019-03-30T15:52:49.895Z,35.30
2019-03-30T15:57:53.568Z,35.47
2019-03-30T16:02:57.188Z,35.19
2019-03-30T16:08:00.804Z,36.30
2019-03-30T16:13:04.835Z,37.17
2019-03-30T16:18:08.442Z,36.69
2019-03-30T16:23:11.978Z,36.79
2019-03-30T16:28:15.592Z,36.89
2019-03-30T16:33:19.154Z,36.79
2019-03-30T16:38:22.769Z,36.58
2019-03-30T16:43:26.322Z,36.64
2019-03-30T16:48:29.912Z,36.67
2019-03-30T16:53:33.477Z,36.51
2019-03-30T16:58:37.053Z,36.50
2019-03-30T17:03:40.614Z,36.07
2019-03-30T17:08:44.193Z,35.64
2019-03-30T17:13:47.763Z,35.50
2019-03-30T17:18:51.333Z,35.40
2019-03-30T17:23:54.905Z,35.33
2019-03-30T17:28:58.829Z,35.20
2019-03-30T17:34:02.355Z,35.45
2019-03-30T17:39:08.257Z,35.47
2019-03-30T17:44:11.790Z,35.64
2019-03-30T17:49:15.736Z,35.76
2019-03-30T17:54:19.377Z,35.90
2019-03-30T17:59:23.885Z,36.34
2019-03-30T18:04:27.739Z,36.36
2019-03-30T18:09:31.361Z,36.36
2019-03-30T18:14:34.980Z,36.47
2019-03-30T18:19:38.600Z,36.78
2019-03-30T18:24:42.361Z,37.14
2019-03-30T18:29:46.039Z,37.26
2019-03-30T18:34:49.617Z,37.65
2019-03-30T18:39:53.296Z,37.94
2019-03-30T18:44:56.902Z,37.58
2019-03-30T18:50:00.519Z,36.84
2019-03-30T18:55:06.526Z,36.22
2019-03-30T19:00:10.236Z,35.37
2019-03-30T19:05:13.759Z,34.96
2019-03-30T19:10:17.347Z,34.50
2019-03-30T19:15:20.967Z,34.79
2019-03-30T19:20:24.598Z,34.88
2019-03-30T19:25:29.880Z,35.29
2019-03-30T19:30:33.670Z,35.54
2019-03-30T19:35:37.194Z,35.85
2019-03-30T19:40:40.814Z,36.10
2019-03-30T19:45:44.434Z,36.49
2019-03-30T19:50:48.043Z,36.95
2019-03-30T19:55:51.666Z,36.50
2019-03-30T20:00:55.290Z,37.10
2019-03-30T20:05:58.908Z,37.47
2019-03-30T20:11:02.523Z,37.44
2019-03-30T20:16:06.095Z,38.84
2019-03-30T20:21:09.658Z,39.25
2019-03-30T20:26:13.235Z,39.70
2019-03-30T20:31:16.948Z,39.83
2019-03-30T20:36:20.735Z,39.76
2019-03-30T20:41:24.343Z,39.97
2019-03-30T20:46:28.288Z,39.97
2019-03-30T20:51:31.819Z,38.29
2019-03-30T20:56:35.405Z,36.86
2019-03-30T21:01:38.955Z,35.93
2019-03-30T21:06:42.546Z,35.51
2019-03-30T21:11:46.164Z,35.27
2019-03-30T21:16:49.788Z,34.95
2019-03-30T21:21:53.398Z,34.95
2019-03-30T21:26:56.977Z,34.41
2019-03-30T21:32:00.540Z,34.84
2019-03-30T21:37:05.183Z,34.87
2019-03-30T21:42:08.715Z,34.90
2019-03-30T21:47:12.324Z,35.19
2019-03-30T21:52:15.938Z,35.19
2019-03-30T21:57:19.560Z,35.72
2019-03-30T22:02:23.171Z,35.74
2019-03-30T22:07:26.750Z,35.70
2019-03-30T22:12:30.418Z,35.31
2019-03-30T22:17:33.964Z,36.97
2019-03-30T22:22:37.659Z,36.97
2019-03-30T22:27:41.293Z,36.66
2019-03-30T22:32:44.889Z,35.54
2019-03-30T22:37:48.934Z,34.65
2019-03-30T22:42:52.645Z,34.14
2019-03-30T22:47:56.266Z,33.51
2019-03-30T22:52:59.880Z,33.25
2019-03-30T22:58:03.504Z,33.40
2019-03-30T23:03:07.428Z,33.54
2019-03-30T23:08:11.046Z,33.71
2019-03-30T23:13:14.670Z,33.75
2019-03-30T23:18:18.284Z,33.21
2019-03-30T23:23:21.904Z,33.65
2019-03-30T23:28:25.528Z,34.89
2019-03-30T23:33:29.057Z,34.89
2019-03-30T23:38:32.602Z,35.35
2019-03-30T23:43:36.288Z,35.89
2019-03-30T23:48:39.918Z,35.99
2019-03-30T23:53:43.501Z,35.96
2019-03-30T23:58:47.242Z,36.83
